sensor_id;sensor_type;location;lat;lon;timestamp;pressure;altitude;pressure_sealevel;temperature;humidity
59789;BME280;47353;51.614;5.530;2023-07-31T05:23:33;100710.19;;;15.82;100.00
59789;BME280;47353;51.614;5.530;2023-07-31T05:26:04;100723.50;;;15.85;100.00
59789;BME280;47353;51.614;5.530;2023-07-31T05:28:29;100723.50;;;15.85;100.00
59789;BME280;47353;51.614;5.530;2023-07-31T05:31:02;100717.09;;;15.85;100.00
59789;BME280;47353;51.614;5.530;2023-07-31T05:33:28;100727.00;;;15.91;100.00
59789;BME280;47353;51.614;5.530;2023-07-31T05:35:53;100714.19;;;15.90;100.00
59789;BME280;47353;51.614;5.530;2023-07-31T05:38:18;100715.84;;;15.91;100.00
59789;BME280;47353;51.614;5.530;2023-07-31T05:40:44;100719.16;;;15.93;100.00
59789;BME280;47353;51.614;5.530;2023-07-31T05:43:09;100717.09;;;15.85;100.00
59789;BME280;47353;51.614;5.530;2023-07-31T05:45:35;100704.09;;;15.80;100.00
59789;BME280;47353;51.614;5.530;2023-07-31T05:48:00;100714.53;;;15.75;100.00
59789;BME280;47353;51.614;5.530;2023-07-31T05:50:26;100705.53;;;15.78;100.00
59789;BME280;47353;51.614;5.530;2023-07-31T05:52:51;100706.47;;;15.73;100.00
59789;BME280;47353;51.614;5.530;2023-07-31T05:55:17;100692.19;;;15.75;100.00
59789;BME280;47353;51.614;5.530;2023-07-31T05:57:42;100684.59;;;15.67;100.00
59789;BME280;47353;51.614;5.530;2023-07-31T06:00:08;100687.50;;;15.62;100.00
59789;BME280;47353;51.614;5.530;2023-07-31T06:02:34;100683.50;;;15.54;100.00
59789;BME280;47353;51.614;5.530;2023-07-31T06:05:02;100684.28;;;15.55;100.00
59789;BME280;47353;51.614;5.530;2023-07-31T06:07:29;100679.16;;;15.48;100.00
59789;BME280;47353;51.614;5.530;2023-07-31T06:09:54;100686.06;;;15.51;100.00
59789;BME280;47353;51.614;5.530;2023-07-31T06:12:20;100685.44;;;15.54;100.00
59789;BME280;47353;51.614;5.530;2023-07-31T06:14:46;100686.47;;;15.58;100.00
59789;BME280;47353;51.614;5.530;2023-07-31T06:17:11;100676.44;;;15.57;100.00
59789;BME280;47353;51.614;5.530;2023-07-31T06:19:37;100681.72;;;15.58;100.00
59789;BME280;47353;51.614;5.530;2023-07-31T06:22:02;100682.28;;;15.69;100.00
59789;BME280;47353;51.614;5.530;2023-07-31T06:24:28;100690.19;;;15.67;100.00
59789;BME280;47353;51.614;5.530;2023-07-31T06:26:53;100683.25;;;15.64;100.00
59789;BME280;47353;51.614;5.530;2023-07-31T06:29:19;100685.94;;;15.69;100.00
59789;BME280;47353;51.614;5.530;2023-07-31T06:31:44;100680.03;;;15.71;100.00
59789;BME280;47353;51.614;5.530;2023-07-31T06:34:10;100674.75;;;15.69;100.00
59789;BME280;47353;51.614;5.530;2023-07-31T06:36:35;100673.50;;;15.75;100.00
59789;BME280;47353;51.614;5.530;2023-07-31T06:39:01;100673.81;;;15.74;100.00
59789;BME280;47353;51.614;5.530;2023-07-31T06:41:26;100669.69;;;15.71;100.00
59789;BME280;47353;51.614;5.530;2023-07-31T06:43:51;100676.28;;;15.75;100.00
59789;BME280;47353;51.614;5.530;2023-07-31T06:46:17;100666.75;;;15.76;100.00
59789;BME280;47353;51.614;5.530;2023-07-31T06:48:42;100662.84;;;15.77;100.00
59789;BME280;47353;51.614;5.530;2023-07-31T06:51:08;100655.13;;;15.74;100.00
59789;BME280;47353;51.614;5.530;2023-07-31T06:53:33;100645.59;;;15.75;100.00
59789;BME280;47353;51.614;5.530;2023-07-31T06:55:59;100648.38;;;15.75;100.00
59789;BME280;47353;51.614;5.530;2023-07-31T06:58:24;100643.75;;;15.71;100.00
59789;BME280;47353;51.614;5.530;2023-07-31T07:00:49;100643.75;;;15.71;100.00
59789;BME280;47353;51.614;5.530;2023-07-31T07:03:18;100644.44;;;15.76;100.00
59789;BME280;47353;51.614;5.530;2023-07-31T07:05:43;100650.22;;;15.80;100.00
59789;BME280;47353;51.614;5.530;2023-07-31T07:08:09;100651.25;;;15.84;100.00
59789;BME280;47353;51.614;5.530;2023-07-31T07:10:34;100648.97;;;15.86;100.00
59789;BME280;47353;51.614;5.530;2023-07-31T07:13:00;100638.31;;;15.88;100.00
59789;BME280;47353;51.614;5.530;2023-07-31T07:15:25;100634.69;;;15.87;100.00
59789;BME280;47353;51.614;5.530;2023-07-31T07:17:50;100637.16;;;15.89;100.00
59789;BME280;47353;51.614;5.530;2023-07-31T07:20:16;100631.66;;;15.97;100.00
59789;BME280;47353;51.614;5.530;2023-07-31T07:22:41;100634.44;;;15.97;100.00
59789;BME280;47353;51.614;5.530;2023-07-31T07:25:08;100635.00;;;16.08;100.00
59789;BME280;47353;51.614;5.530;2023-07-31T07:27:34;100638.31;;;16.10;100.00
59789;BME280;47353;51.614;5.530;2023-07-31T07:29:59;100623.19;;;16.11;100.00
59789;BME280;47353;51.614;5.530;2023-07-31T07:32:25;100625.72;;;16.21;100.00
59789;BME280;47353;51.614;5.530;2023-07-31T07:34:50;100632.31;;;16.25;100.00
59789;BME280;47353;51.614;5.530;2023-07-31T07:37:16;100635.44;;;16.23;100.00
59789;BME280;47353;51.614;5.530;2023-07-31T07:39:41;100636.56;;;16.22;100.00
59789;BME280;47353;51.614;5.530;2023-07-31T07:42:07;100641.97;;;16.19;100.00
59789;BME280;47353;51.614;5.530;2023-07-31T07:44:32;100643.06;;;16.09;100.00
59789;BME280;47353;51.614;5.530;2023-07-31T07:46:57;100643.25;;;16.13;100.00
59789;BME280;47353;51.614;5.530;2023-07-31T07:49:23;100642.75;;;16.11;100.00
59789;BME280;47353;51.614;5.530;2023-07-31T07:51:49;100644.22;;;16.08;100.00
59789;BME280;47353;51.614;5.530;2023-07-31T07:54:14;100633.38;;;16.07;100.00
59789;BME280;47353;51.614;5.530;2023-07-31T07:56:42;100628.25;;;16.09;100.00
59789;BME280;47353;51.614;5.530;2023-07-31T07:59:08;100631.91;;;16.09;100.00
59789;BME280;47353;51.614;5.530;2023-07-31T08:01:33;100629.31;;;16.13;100.00
59789;BME280;47353;51.614;5.530;2023-07-31T08:03:59;100625.03;;;16.15;100.00
59789;BME280;47353;51.614;5.530;2023-07-31T08:06:25;100624.91;;;16.20;100.00
59789;BME280;47353;51.614;5.530;2023-07-31T08:08:50;100625.34;;;16.14;100.00
59789;BME280;47353;51.614;5.530;2023-07-31T08:11:15;100628.19;;;16.22;100.00
59789;BME280;47353;51.614;5.530;2023-07-31T08:13:41;100625.09;;;16.24;100.00
59789;BME280;47353;51.614;5.530;2023-07-31T08:16:06;100628.19;;;16.22;100.00
59789;BME280;47353;51.614;5.530;2023-07-31T08:18:32;100629.53;;;16.25;100.00
59789;BME280;47353;51.614;5.530;2023-07-31T08:20:58;100627.38;;;16.22;100.00
59789;BME280;47353;51.614;5.530;2023-07-31T08:23:24;100622.31;;;16.24;100.00
59789;BME280;47353;51.614;5.530;2023-07-31T08:25:49;100621.34;;;16.28;100.00
59789;BME280;47353;51.614;5.530;2023-07-31T08:28:16;100623.66;;;16.35;100.00
59789;BME280;47353;51.614;5.530;2023-07-31T08:30:42;100618.41;;;16.33;100.00
59789;BME280;47353;51.614;5.530;2023-07-31T08:33:07;100620.19;;;16.29;100.00
59789;BME280;47353;51.614;5.530;2023-07-31T08:35:33;100622.47;;;16.27;100.00
59789;BME280;47353;51.614;5.530;2023-07-31T08:37:59;100622.16;;;16.29;100.00
59789;BME280;47353;51.614;5.530;2023-07-31T08:40:24;100622.34;;;16.32;100.00
59789;BME280;47353;51.614;5.530;2023-07-31T08:42:53;100622.78;;;16.26;100.00
59789;BME280;47353;51.614;5.530;2023-07-31T08:45:20;100622.25;;;16.15;100.00
59789;BME280;47353;51.614;5.530;2023-07-31T08:47:47;100616.53;;;16.20;100.00
59789;BME280;47353;51.614;5.530;2023-07-31T08:50:14;100621.91;;;16.17;100.00
59789;BME280;47353;51.614;5.530;2023-07-31T08:52:39;100625.00;;;16.07;100.00
59789;BME280;47353;51.614;5.530;2023-07-31T08:55:06;100620.59;;;16.14;100.00
59789;BME280;47353;51.614;5.530;2023-07-31T08:57:31;100619.56;;;16.10;100.00
59789;BME280;47353;51.614;5.530;2023-07-31T08:59:58;100614.63;;;16.07;100.00
59789;BME280;47353;51.614;5.530;2023-07-31T09:02:28;100621.69;;;16.05;100.00
59789;BME280;47353;51.614;5.530;2023-07-31T09:04:56;100623.97;;;16.03;100.00
59789;BME280;47353;51.614;5.530;2023-07-31T09:07:22;100614.94;;;16.06;100.00
59789;BME280;47353;51.614;5.530;2023-07-31T09:09:49;100615.59;;;16.03;100.00
59789;BME280;47353;51.614;5.530;2023-07-31T09:12:15;100610.84;;;16.03;100.00
59789;BME280;47353;51.614;5.530;2023-07-31T09:14:42;100611.34;;;16.05;100.00
59789;BME280;47353;51.614;5.530;2023-07-31T09:17:10;100615.50;;;16.16;100.00
59789;BME280;47353;51.614;5.530;2023-07-31T09:19:36;100617.31;;;16.21;100.00
59789;BME280;47353;51.614;5.530;2023-07-31T09:22:05;100612.44;;;16.26;100.00
59789;BME280;47353;51.614;5.530;2023-07-31T09:24:33;100605.94;;;16.39;100.00
59789;BME280;47353;51.614;5.530;2023-07-31T09:26:59;100607.66;;;16.49;100.00
59789;BME280;47353;51.614;5.530;2023-07-31T09:29:27;100604.91;;;16.57;100.00
59789;BME280;47353;51.614;5.530;2023-07-31T09:31:54;100607.72;;;16.66;100.00
59789;BME280;47353;51.614;5.530;2023-07-31T09:34:21;100599.22;;;16.80;100.00
59789;BME280;47353;51.614;5.530;2023-07-31T09:36:53;100599.97;;;17.02;100.00
59789;BME280;47353;51.614;5.530;2023-07-31T09:39:19;100597.50;;;17.01;100.00
59789;BME280;47353;51.614;5.530;2023-07-31T09:41:54;100597.97;;;17.03;100.00
59789;BME280;47353;51.614;5.530;2023-07-31T09:44:20;100604.25;;;17.08;100.00
59789;BME280;47353;51.614;5.530;2023-07-31T09:46:46;100593.72;;;17.14;100.00
59789;BME280;47353;51.614;5.530;2023-07-31T09:49:14;100593.25;;;17.20;100.00
59789;BME280;47353;51.614;5.530;2023-07-31T09:51:41;100595.75;;;17.39;100.00
59789;BME280;47353;51.614;5.530;2023-07-31T09:54:11;100596.94;;;17.46;100.00
59789;BME280;47353;51.614;5.530;2023-07-31T09:56:45;100599.06;;;17.49;100.00
59789;BME280;47353;51.614;5.530;2023-07-31T09:59:16;100589.69;;;17.45;100.00
59789;BME280;47353;51.614;5.530;2023-07-31T10:01:42;100591.13;;;17.43;100.00
59789;BME280;47353;51.614;5.530;2023-07-31T10:04:09;100596.44;;;17.53;100.00
59789;BME280;47353;51.614;5.530;2023-07-31T10:06:36;100589.84;;;17.57;100.00
59789;BME280;47353;51.614;5.530;2023-07-31T10:09:05;100577.34;;;17.46;100.00
59789;BME280;47353;51.614;5.530;2023-07-31T10:11:34;100599.72;;;17.63;100.00
59789;BME280;47353;51.614;5.530;2023-07-31T10:14:03;100593.31;;;17.63;100.00
59789;BME280;47353;51.614;5.530;2023-07-31T10:16:30;100593.97;;;17.68;100.00
59789;BME280;47353;51.614;5.530;2023-07-31T10:18:56;100594.28;;;17.75;100.00
59789;BME280;47353;51.614;5.530;2023-07-31T10:21:22;100589.03;;;17.82;100.00
59789;BME280;47353;51.614;5.530;2023-07-31T10:23:47;100586.53;;;17.98;100.00
59789;BME280;47353;51.614;5.530;2023-07-31T10:26:17;100584.03;;;18.13;100.00
59789;BME280;47353;51.614;5.530;2023-07-31T10:28:46;100599.31;;;18.24;100.00
59789;BME280;47353;51.614;5.530;2023-07-31T10:31:12;100575.94;;;18.20;100.00
59789;BME280;47353;51.614;5.530;2023-07-31T10:33:38;100586.47;;;18.32;100.00
59789;BME280;47353;51.614;5.530;2023-07-31T10:36:18;100613.81;;;18.35;100.00
59789;BME280;47353;51.614;5.530;2023-07-31T10:38:44;100579.53;;;18.29;100.00
59789;BME280;47353;51.614;5.530;2023-07-31T10:41:10;100580.34;;;18.30;100.00
59789;BME280;47353;51.614;5.530;2023-07-31T10:43:37;100581.81;;;18.45;100.00
59789;BME280;47353;51.614;5.530;2023-07-31T10:46:07;100579.59;;;18.67;100.00
59789;BME280;47353;51.614;5.530;2023-07-31T10:48:34;100581.72;;;18.70;100.00
59789;BME280;47353;51.614;5.530;2023-07-31T10:51:09;100579.16;;;18.57;100.00
59789;BME280;47353;51.614;5.530;2023-07-31T10:53:38;100581.44;;;18.55;100.00
59789;BME280;47353;51.614;5.530;2023-07-31T10:56:06;100577.63;;;18.59;100.00
59789;BME280;47353;51.614;5.530;2023-07-31T10:58:32;100582.63;;;18.54;100.00
59789;BME280;47353;51.614;5.530;2023-07-31T11:01:00;100588.41;;;18.40;100.00
59789;BME280;47353;51.614;5.530;2023-07-31T11:03:41;100570.78;;;18.31;100.00
59789;BME280;47353;51.614;5.530;2023-07-31T11:06:07;100584.78;;;18.31;100.00
59789;BME280;47353;51.614;5.530;2023-07-31T11:08:35;100574.75;;;18.30;100.00
59789;BME280;47353;51.614;5.530;2023-07-31T11:13:42;100582.31;;;18.29;100.00
59789;BME280;47353;51.614;5.530;2023-07-31T11:16:09;100585.16;;;18.38;100.00
59789;BME280;47353;51.614;5.530;2023-07-31T11:18:35;100574.50;;;18.61;100.00
59789;BME280;47353;51.614;5.530;2023-07-31T11:21:03;100578.84;;;18.79;100.00
59789;BME280;47353;51.614;5.530;2023-07-31T11:23:28;100566.44;;;18.88;100.00
59789;BME280;47353;51.614;5.530;2023-07-31T11:25:59;100566.91;;;18.90;100.00
59789;BME280;47353;51.614;5.530;2023-07-31T11:28:24;100574.34;;;18.86;100.00
59789;BME280;47353;51.614;5.530;2023-07-31T11:30:50;100575.72;;;18.80;100.00
59789;BME280;47353;51.614;5.530;2023-07-31T11:33:15;100574.06;;;18.79;100.00
59789;BME280;47353;51.614;5.530;2023-07-31T11:35:46;100566.00;;;18.78;100.00
59789;BME280;47353;51.614;5.530;2023-07-31T11:38:21;100564.63;;;18.55;100.00
59789;BME280;47353;51.614;5.530;2023-07-31T11:40:48;100559.84;;;18.55;100.00
59789;BME280;47353;51.614;5.530;2023-07-31T11:43:14;100569.66;;;18.70;100.00
59789;BME280;47353;51.614;5.530;2023-07-31T11:45:46;100564.72;;;18.75;100.00
59789;BME280;47353;51.614;5.530;2023-07-31T11:48:20;100557.97;;;18.97;100.00
59789;BME280;47353;51.614;5.530;2023-07-31T11:50:47;100563.25;;;18.98;100.00
59789;BME280;47353;51.614;5.530;2023-07-31T11:53:15;100556.97;;;19.01;100.00
59789;BME280;47353;51.614;5.530;2023-07-31T11:55:42;100547.22;;;18.99;100.00
59789;BME280;47353;51.614;5.530;2023-07-31T11:58:08;100544.75;;;18.97;100.00
59789;BME280;47353;51.614;5.530;2023-07-31T12:00:33;100544.03;;;19.09;100.00
59789;BME280;47353;51.614;5.530;2023-07-31T12:02:59;100548.31;;;19.06;100.00
59789;BME280;47353;51.614;5.530;2023-07-31T12:05:24;100538.47;;;19.00;100.00
59789;BME280;47353;51.614;5.530;2023-07-31T12:07:52;100551.13;;;19.06;100.00
59789;BME280;47353;51.614;5.530;2023-07-31T12:13:09;100557.34;;;18.91;100.00
59789;BME280;47353;51.614;5.530;2023-07-31T12:15:42;100557.63;;;18.98;100.00
59789;BME280;47353;51.614;5.530;2023-07-31T12:18:13;100564.31;;;18.85;100.00
59789;BME280;47353;51.614;5.530;2023-07-31T12:20:57;100564.16;;;18.82;100.00
59789;BME280;47353;51.614;5.530;2023-07-31T12:23:25;100558.53;;;18.82;100.00
59789;BME280;47353;51.614;5.530;2023-07-31T12:28:35;100545.69;;;18.81;100.00
59789;BME280;47353;51.614;5.530;2023-07-31T12:31:02;100542.59;;;19.03;100.00
59789;BME280;47353;51.614;5.530;2023-07-31T12:33:32;100538.44;;;19.29;100.00
59789;BME280;47353;51.614;5.530;2023-07-31T12:35:59;100539.75;;;19.32;100.00
59789;BME280;47353;51.614;5.530;2023-07-31T12:38:25;100528.91;;;19.22;100.00
59789;BME280;47353;51.614;5.530;2023-07-31T12:40:51;100534.59;;;19.13;100.00
59789;BME280;47353;51.614;5.530;2023-07-31T12:43:16;100537.19;;;19.18;100.00
59789;BME280;47353;51.614;5.530;2023-07-31T12:45:41;100532.72;;;19.17;100.00
59789;BME280;47353;51.614;5.530;2023-07-31T12:48:07;100527.19;;;19.09;100.00
59789;BME280;47353;51.614;5.530;2023-07-31T12:50:32;100527.63;;;19.19;100.00
59789;BME280;47353;51.614;5.530;2023-07-31T12:52:58;100527.94;;;19.18;100.00
59789;BME280;47353;51.614;5.530;2023-07-31T12:55:23;100520.94;;;19.03;100.00
59789;BME280;47353;51.614;5.530;2023-07-31T12:57:50;100516.44;;;18.90;100.00
59789;BME280;47353;51.614;5.530;2023-07-31T13:00:16;100517.75;;;18.64;100.00
59789;BME280;47353;51.614;5.530;2023-07-31T13:02:41;100508.59;;;18.46;100.00
59789;BME280;47353;51.614;5.530;2023-07-31T13:05:07;100510.94;;;18.44;100.00
59789;BME280;47353;51.614;5.530;2023-07-31T13:07:32;100504.16;;;18.45;100.00
59789;BME280;47353;51.614;5.530;2023-07-31T13:09:58;100501.84;;;18.47;100.00
59789;BME280;47353;51.614;5.530;2023-07-31T13:12:23;100498.88;;;18.52;100.00
59789;BME280;47353;51.614;5.530;2023-07-31T13:14:50;100500.84;;;18.52;100.00
59789;BME280;47353;51.614;5.530;2023-07-31T13:17:16;100501.94;;;18.59;100.00
59789;BME280;47353;51.614;5.530;2023-07-31T13:19:41;100501.25;;;18.62;100.00
59789;BME280;47353;51.614;5.530;2023-07-31T13:22:07;100504.56;;;18.64;100.00
59789;BME280;47353;51.614;5.530;2023-07-31T13:24:33;100500.66;;;18.77;100.00
59789;BME280;47353;51.614;5.530;2023-07-31T13:26:58;100494.84;;;18.91;100.00
59789;BME280;47353;51.614;5.530;2023-07-31T13:29:23;100496.72;;;18.99;100.00
59789;BME280;47353;51.614;5.530;2023-07-31T13:31:49;100483.88;;;18.98;100.00
59789;BME280;47353;51.614;5.530;2023-07-31T13:34:15;100469.91;;;19.10;100.00
59789;BME280;47353;51.614;5.530;2023-07-31T13:36:40;100478.47;;;18.93;100.00
59789;BME280;47353;51.614;5.530;2023-07-31T13:39:06;100475.72;;;18.84;100.00
59789;BME280;47353;51.614;5.530;2023-07-31T13:41:32;100477.56;;;18.80;100.00
59789;BME280;47353;51.614;5.530;2023-07-31T13:43:57;100473.94;;;18.80;100.00
59789;BME280;47353;51.614;5.530;2023-07-31T13:46:23;100481.72;;;18.74;100.00
59789;BME280;47353;51.614;5.530;2023-07-31T13:48:48;100481.59;;;18.71;100.00
59789;BME280;47353;51.614;5.530;2023-07-31T13:51:13;100481.13;;;18.69;100.00
59789;BME280;47353;51.614;5.530;2023-07-31T13:53:39;100482.72;;;18.49;100.00
59789;BME280;47353;51.614;5.530;2023-07-31T13:56:04;100475.34;;;18.27;100.00
59789;BME280;47353;51.614;5.530;2023-07-31T13:58:30;100480.50;;;18.25;100.00
59789;BME280;47353;51.614;5.530;2023-07-31T14:00:55;100482.44;;;18.34;100.00
59789;BME280;47353;51.614;5.530;2023-07-31T14:03:20;100468.88;;;18.36;100.00
59789;BME280;47353;51.614;5.530;2023-07-31T14:05:46;100465.69;;;18.54;100.00
59789;BME280;47353;51.614;5.530;2023-07-31T14:08:11;100469.41;;;18.67;100.00
59789;BME280;47353;51.614;5.530;2023-07-31T14:10:37;100473.38;;;18.66;100.00
59789;BME280;47353;51.614;5.530;2023-07-31T14:13:02;100469.25;;;18.63;100.00
59789;BME280;47353;51.614;5.530;2023-07-31T14:15:28;100479.84;;;18.58;100.00
59789;BME280;47353;51.614;5.530;2023-07-31T14:17:53;100471.81;;;18.48;100.00
59789;BME280;47353;51.614;5.530;2023-07-31T14:20:19;100465.09;;;18.40;100.00
59789;BME280;47353;51.614;5.530;2023-07-31T14:22:44;100463.63;;;18.34;100.00
59789;BME280;47353;51.614;5.530;2023-07-31T14:25:10;100464.16;;;18.27;100.00
59789;BME280;47353;51.614;5.530;2023-07-31T14:27:36;100467.94;;;18.32;100.00
59789;BME280;47353;51.614;5.530;2023-07-31T14:30:02;100458.03;;;18.34;100.00
59789;BME280;47353;51.614;5.530;2023-07-31T14:32:27;100457.06;;;18.30;100.00
59789;BME280;47353;51.614;5.530;2023-07-31T14:34:53;100456.13;;;18.17;100.00
59789;BME280;47353;51.614;5.530;2023-07-31T14:37:19;100457.09;;;18.21;100.00
59789;BME280;47353;51.614;5.530;2023-07-31T14:39:45;100440.78;;;18.23;100.00
59789;BME280;47353;51.614;5.530;2023-07-31T14:42:10;100441.72;;;18.27;100.00
59789;BME280;47353;51.614;5.530;2023-07-31T14:44:36;100430.34;;;18.33;100.00
59789;BME280;47353;51.614;5.530;2023-07-31T14:47:01;100428.22;;;18.38;100.00
59789;BME280;47353;51.614;5.530;2023-07-31T14:49:26;100418.78;;;18.43;100.00
59789;BME280;47353;51.614;5.530;2023-07-31T14:51:55;100414.66;;;18.40;100.00
59789;BME280;47353;51.614;5.530;2023-07-31T14:54:20;100420.41;;;18.44;100.00
59789;BME280;47353;51.614;5.530;2023-07-31T14:56:45;100410.84;;;18.45;100.00
59789;BME280;47353;51.614;5.530;2023-07-31T14:59:11;100405.94;;;18.33;100.00
59789;BME280;47353;51.614;5.530;2023-07-31T15:01:37;100415.66;;;18.36;100.00
59789;BME280;47353;51.614;5.530;2023-07-31T15:04:03;100415.66;;;18.36;100.00
59789;BME280;47353;51.614;5.530;2023-07-31T15:06:28;100398.56;;;18.28;100.00
59789;BME280;47353;51.614;5.530;2023-07-31T15:08:54;100402.66;;;18.31;100.00
59789;BME280;47353;51.614;5.530;2023-07-31T15:11:19;100405.19;;;18.24;100.00
59789;BME280;47353;51.614;5.530;2023-07-31T15:13:45;100386.59;;;18.19;100.00
59789;BME280;47353;51.614;5.530;2023-07-31T15:16:10;100385.09;;;18.22;100.00
59789;BME280;47353;51.614;5.530;2023-07-31T15:18:35;100382.81;;;18.15;100.00
59789;BME280;47353;51.614;5.530;2023-07-31T15:21:01;100378.97;;;18.20;100.00
59789;BME280;47353;51.614;5.530;2023-07-31T15:23:26;100383.63;;;18.16;100.00
59789;BME280;47353;51.614;5.530;2023-07-31T15:25:52;100381.09;;;18.23;100.00
59789;BME280;47353;51.614;5.530;2023-07-31T15:28:18;100381.78;;;18.20;100.00
59789;BME280;47353;51.614;5.530;2023-07-31T15:30:44;100368.13;;;18.18;100.00
59789;BME280;47353;51.614;5.530;2023-07-31T15:33:10;100367.25;;;18.26;100.00
59789;BME280;47353;51.614;5.530;2023-07-31T15:35:35;100361.03;;;18.21;100.00
59789;BME280;47353;51.614;5.530;2023-07-31T15:38:00;100366.00;;;18.15;100.00
59789;BME280;47353;51.614;5.530;2023-07-31T15:40:26;100355.97;;;18.14;100.00
59789;BME280;47353;51.614;5.530;2023-07-31T15:42:51;100354.69;;;18.03;100.00
59789;BME280;47353;51.614;5.530;2023-07-31T15:45:17;100351.28;;;17.98;100.00
59789;BME280;47353;51.614;5.530;2023-07-31T15:47:42;100348.59;;;18.01;100.00
59789;BME280;47353;51.614;5.530;2023-07-31T15:50:08;100347.38;;;17.90;100.00
59789;BME280;47353;51.614;5.530;2023-07-31T15:52:33;100353.84;;;17.74;100.00
59789;BME280;47353;51.614;5.530;2023-07-31T15:54:59;100347.00;;;17.63;100.00
59789;BME280;47353;51.614;5.530;2023-07-31T15:57:24;100355.59;;;17.58;100.00
59789;BME280;47353;51.614;5.530;2023-07-31T15:59:50;100339.16;;;17.48;100.00
59789;BME280;47353;51.614;5.530;2023-07-31T16:02:15;100331.28;;;17.33;100.00
59789;BME280;47353;51.614;5.530;2023-07-31T16:04:40;100326.03;;;17.23;100.00
59789;BME280;47353;51.614;5.530;2023-07-31T16:07:06;100328.22;;;17.09;100.00
59789;BME280;47353;51.614;5.530;2023-07-31T16:09:31;100323.47;;;17.01;100.00
59789;BME280;47353;51.614;5.530;2023-07-31T16:11:57;100308.16;;;16.98;100.00
59789;BME280;47353;51.614;5.530;2023-07-31T16:14:22;100308.66;;;17.00;100.00
59789;BME280;47353;51.614;5.530;2023-07-31T16:16:48;100293.50;;;17.01;100.00
59789;BME280;47353;51.614;5.530;2023-07-31T16:19:14;100297.81;;;17.07;100.00
59789;BME280;47353;51.614;5.530;2023-07-31T16:21:39;100292.38;;;16.94;100.00
59789;BME280;47353;51.614;5.530;2023-07-31T16:24:04;100278.75;;;16.92;100.00
59789;BME280;47353;51.614;5.530;2023-07-31T16:26:30;100277.09;;;16.91;100.00
59789;BME280;47353;51.614;5.530;2023-07-31T16:28:56;100289.25;;;17.04;100.00
59789;BME280;47353;51.614;5.530;2023-07-31T16:31:21;100278.56;;;16.97;100.00
59789;BME280;47353;51.614;5.530;2023-07-31T16:33:47;100277.06;;;17.00;100.00
59789;BME280;47353;51.614;5.530;2023-07-31T16:36:12;100275.28;;;16.95;100.00
59789;BME280;47353;51.614;5.530;2023-07-31T16:38:38;100275.44;;;16.99;100.00
59789;BME280;47353;51.614;5.530;2023-07-31T16:41:05;100270.00;;;17.02;100.00
59789;BME280;47353;51.614;5.530;2023-07-31T16:43:30;100268.19;;;17.06;100.00
59789;BME280;47353;51.614;5.530;2023-07-31T16:45:56;100253.69;;;17.13;100.00
59789;BME280;47353;51.614;5.530;2023-07-31T16:48:21;100256.47;;;17.13;100.00
59789;BME280;47353;51.614;5.530;2023-07-31T16:50:47;100242.34;;;17.09;100.00
59789;BME280;47353;51.614;5.530;2023-07-31T16:53:12;100232.81;;;17.10;100.00
59789;BME280;47353;51.614;5.530;2023-07-31T16:55:38;100231.81;;;17.06;100.00
59789;BME280;47353;51.614;5.530;2023-07-31T16:58:03;100221.47;;;17.07;100.00
59789;BME280;47353;51.614;5.530;2023-07-31T17:00:28;100220.47;;;17.11;100.00
59789;BME280;47353;51.614;5.530;2023-07-31T17:02:55;100223.59;;;17.10;100.00
59789;BME280;47353;51.614;5.530;2023-07-31T17:05:20;100219.00;;;17.05;100.00
59789;BME280;47353;51.614;5.530;2023-07-31T17:07:45;100223.09;;;17.08;100.00
59789;BME280;47353;51.614;5.530;2023-07-31T17:10:11;100217.03;;;17.06;100.00
59789;BME280;47353;51.614;5.530;2023-07-31T17:12:36;100215.38;;;17.05;100.00
59789;BME280;47353;51.614;5.530;2023-07-31T17:15:02;100217.34;;;17.13;100.00
59789;BME280;47353;51.614;5.530;2023-07-31T17:17:29;100208.78;;;17.09;100.00
59789;BME280;47353;51.614;5.530;2023-07-31T17:19:54;100208.44;;;17.11;100.00
59789;BME280;47353;51.614;5.530;2023-07-31T17:22:20;100205.53;;;17.07;100.00
59789;BME280;47353;51.614;5.530;2023-07-31T17:24:45;100205.53;;;17.07;100.00
59789;BME280;47353;51.614;5.530;2023-07-31T17:27:10;100198.75;;;17.08;100.00
59789;BME280;47353;51.614;5.530;2023-07-31T17:29:36;100209.63;;;17.10;100.00
59789;BME280;47353;51.614;5.530;2023-07-31T17:32:01;100198.72;;;17.17;100.00
59789;BME280;47353;51.614;5.530;2023-07-31T17:34:27;100197.09;;;17.16;100.00
59789;BME280;47353;51.614;5.530;2023-07-31T17:36:53;100203.19;;;17.09;100.00
59789;BME280;47353;51.614;5.530;2023-07-31T17:39:18;100190.41;;;17.00;100.00
59789;BME280;47353;51.614;5.530;2023-07-31T17:41:44;100183.66;;;17.01;100.00
59789;BME280;47353;51.614;5.530;2023-07-31T17:44:09;100182.38;;;16.90;100.00
59789;BME280;47353;51.614;5.530;2023-07-31T17:46:34;100178.44;;;16.91;100.00
59789;BME280;47353;51.614;5.530;2023-07-31T17:49:00;100177.13;;;16.88;100.00
59789;BME280;47353;51.614;5.530;2023-07-31T17:51:25;100177.81;;;16.85;100.00
59789;BME280;47353;51.614;5.530;2023-07-31T17:53:51;100167.97;;;16.79;100.00
59789;BME280;47353;51.614;5.530;2023-07-31T17:56:16;100182.91;;;16.83;100.00
59789;BME280;47353;51.614;5.530;2023-07-31T17:58:42;100175.00;;;16.85;100.00
59789;BME280;47353;51.614;5.530;2023-07-31T18:01:07;100168.69;;;16.97;100.00
59789;BME280;47353;51.614;5.530;2023-07-31T18:03:33;100170.03;;;16.91;100.00
59789;BME280;47353;51.614;5.530;2023-07-31T18:05:58;100180.44;;;16.90;100.00